sensor_id;sensor_type;location;lat;lon;timestamp;P1;durP1;ratioP1;P2;durP2;ratioP2
73104;SDS011;61296;50.526;30.792;2023-08-21T00:10:45;11.05;;;9.77;;
73104;SDS011;61296;50.526;30.792;2023-08-21T00:26:04;11.93;;;10.57;;
73104;SDS011;61296;50.526;30.792;2023-08-21T00:41:23;12.00;;;10.80;;
73104;SDS011;61296;50.526;30.792;2023-08-21T00:56:42;13.00;;;11.45;;
73104;SDS011;61296;50.526;30.792;2023-08-21T01:12:22;14.43;;;11.88;;
73104;SDS011;61296;50.526;30.792;2023-08-21T01:27:48;12.93;;;11.63;;
73104;SDS011;61296;50.526;30.792;2023-08-21T01:43:09;15.90;;;12.27;;
73104;SDS011;61296;50.526;30.792;2023-08-21T01:58:28;14.20;;;12.70;;
73104;SDS011;61296;50.526;30.792;2023-08-21T02:13:47;12.52;;;11.32;;
73104;SDS011;61296;50.526;30.792;2023-08-21T02:29:06;13.65;;;11.82;;
73104;SDS011;61296;50.526;30.792;2023-08-21T02:44:26;12.52;;;11.27;;
73104;SDS011;61296;50.526;30.792;2023-08-21T02:59:44;14.15;;;11.80;;
73104;SDS011;61296;50.526;30.792;2023-08-21T03:15:04;12.88;;;11.57;;
73104;SDS011;61296;50.526;30.792;2023-08-21T03:30:23;14.30;;;12.13;;
73104;SDS011;61296;50.526;30.792;2023-08-21T03:45:43;15.13;;;11.38;;
73104;SDS011;61296;50.526;30.792;2023-08-21T04:01:02;12.38;;;11.07;;
73104;SDS011;61296;50.526;30.792;2023-08-21T04:16:21;13.93;;;10.70;;
73104;SDS011;61296;50.526;30.792;2023-08-21T04:31:40;14.35;;;11.55;;
73104;SDS011;61296;50.526;30.792;2023-08-21T04:47:18;12.85;;;10.98;;
73104;SDS011;61296;50.526;30.792;2023-08-21T05:02:40;17.58;;;11.98;;
73104;SDS011;61296;50.526;30.792;2023-08-21T05:17:59;13.75;;;10.60;;
73104;SDS011;61296;50.526;30.792;2023-08-21T05:33:20;12.25;;;10.95;;
73104;SDS011;61296;50.526;30.792;2023-08-21T05:48:42;13.03;;;11.30;;
73104;SDS011;61296;50.526;30.792;2023-08-21T06:04:01;13.95;;;11.30;;
73104;SDS011;61296;50.526;30.792;2023-08-21T06:19:44;12.83;;;11.00;;
73104;SDS011;61296;50.526;30.792;2023-08-21T06:35:04;16.92;;;11.60;;
73104;SDS011;61296;50.526;30.792;2023-08-21T06:50:23;13.10;;;11.48;;
73104;SDS011;61296;50.526;30.792;2023-08-21T07:05:45;14.93;;;11.15;;
73104;SDS011;61296;50.526;30.792;2023-08-21T07:21:06;13.65;;;12.30;;
73104;SDS011;61296;50.526;30.792;2023-08-21T07:36:25;11.35;;;9.90;;
73104;SDS011;61296;50.526;30.792;2023-08-21T07:51:44;10.80;;;9.52;;
73104;SDS011;61296;50.526;30.792;2023-08-21T08:07:03;10.15;;;9.15;;
73104;SDS011;61296;50.526;30.792;2023-08-21T08:22:22;27.15;;;19.75;;
73104;SDS011;61296;50.526;30.792;2023-08-21T08:37:41;10.03;;;9.00;;
73104;SDS011;61296;50.526;30.792;2023-08-21T08:53:01;10.27;;;8.57;;
73104;SDS011;61296;50.526;30.792;2023-08-21T09:08:20;11.55;;;9.50;;
73104;SDS011;61296;50.526;30.792;2023-08-21T09:23:39;9.45;;;8.25;;
73104;SDS011;61296;50.526;30.792;2023-08-21T09:39:00;9.68;;;8.68;;
73104;SDS011;61296;50.526;30.792;2023-08-21T09:54:26;8.87;;;6.83;;
73104;SDS011;61296;50.526;30.792;2023-08-21T10:09:45;15.23;;;8.03;;
73104;SDS011;61296;50.526;30.792;2023-08-21T10:25:10;8.07;;;7.27;;
73104;SDS011;61296;50.526;30.792;2023-08-21T10:40:34;9.68;;;6.90;;
73104;SDS011;61296;50.526;30.792;2023-08-21T10:55:54;9.77;;;6.30;;
73104;SDS011;61296;50.526;30.792;2023-08-21T11:11:13;8.90;;;6.95;;
73104;SDS011;61296;50.526;30.792;2023-08-21T11:26:35;14.70;;;6.68;;
73104;SDS011;61296;50.526;30.792;2023-08-21T11:41:58;9.18;;;6.57;;
73104;SDS011;61296;50.526;30.792;2023-08-21T11:57:20;7.55;;;5.75;;
73104;SDS011;61296;50.526;30.792;2023-08-21T12:12:39;6.93;;;5.93;;
73104;SDS011;61296;50.526;30.792;2023-08-21T12:27:59;8.07;;;6.10;;
73104;SDS011;61296;50.526;30.792;2023-08-21T12:43:18;7.23;;;6.57;;
73104;SDS011;61296;50.526;30.792;2023-08-21T12:58:37;10.07;;;7.07;;
73104;SDS011;61296;50.526;30.792;2023-08-21T13:13:56;9.82;;;7.88;;
73104;SDS011;61296;50.526;30.792;2023-08-21T13:29:15;7.88;;;7.07;;
73104;SDS011;61296;50.526;30.792;2023-08-21T13:44:34;13.87;;;7.70;;
73104;SDS011;61296;50.526;30.792;2023-08-21T13:59:54;9.18;;;7.40;;
73104;SDS011;61296;50.526;30.792;2023-08-21T14:15:13;7.50;;;6.80;;
73104;SDS011;61296;50.526;30.792;2023-08-21T14:30:33;7.10;;;6.40;;
73104;SDS011;61296;50.526;30.792;2023-08-21T14:45:52;10.27;;;6.20;;
73104;SDS011;61296;50.526;30.792;2023-08-21T15:01:11;6.63;;;5.93;;
73104;SDS011;61296;50.526;30.792;2023-08-21T15:16:29;6.77;;;6.00;;
73104;SDS011;61296;50.526;30.792;2023-08-21T15:31:49;6.43;;;5.85;;
73104;SDS011;61296;50.526;30.792;2023-08-21T15:47:09;9.00;;;5.53;;
73104;SDS011;61296;50.526;30.792;2023-08-21T16:02:28;7.35;;;5.22;;
73104;SDS011;61296;50.526;30.792;2023-08-21T16:17:48;6.13;;;5.47;;
73104;SDS011;61296;50.526;30.792;2023-08-21T16:33:07;6.30;;;5.10;;
73104;SDS011;61296;50.526;30.792;2023-08-21T16:48:26;7.57;;;5.78;;
73104;SDS011;61296;50.526;30.792;2023-08-21T17:03:45;11.57;;;5.68;;
73104;SDS011;61296;50.526;30.792;2023-08-21T17:19:04;11.30;;;7.22;;
73104;SDS011;61296;50.526;30.792;2023-08-21T17:34:23;9.75;;;7.03;;
73104;SDS011;61296;50.526;30.792;2023-08-21T17:49:44;8.25;;;6.20;;
73104;SDS011;61296;50.526;30.792;2023-08-21T18:05:04;6.47;;;5.88;;
73104;SDS011;61296;50.526;30.792;2023-08-21T18:20:24;7.38;;;6.53;;
73104;SDS011;61296;50.526;30.792;2023-08-21T18:36:10;8.70;;;5.85;;
73104;SDS011;61296;50.526;30.792;2023-08-21T18:51:29;10.68;;;9.30;;
73104;SDS011;61296;50.526;30.792;2023-08-21T19:06:48;10.18;;;7.90;;
73104;SDS011;61296;50.526;30.792;2023-08-21T19:22:08;11.88;;;9.00;;
73104;SDS011;61296;50.526;30.792;2023-08-21T19:37:28;16.77;;;10.15;;
73104;SDS011;61296;50.526;30.792;2023-08-21T19:52:48;13.07;;;10.48;;
73104;SDS011;61296;50.526;30.792;2023-08-21T20:08:07;14.25;;;9.77;;
73104;SDS011;61296;50.526;30.792;2023-08-21T20:23:26;22.88;;;11.25;;
73104;SDS011;61296;50.526;30.792;2023-08-21T20:38:45;14.35;;;9.95;;
73104;SDS011;61296;50.526;30.792;2023-08-21T20:54:04;12.98;;;9.70;;
73104;SDS011;61296;50.526;30.792;2023-08-21T21:09:23;13.98;;;9.85;;
73104;SDS011;61296;50.526;30.792;2023-08-21T21:24:42;12.68;;;10.25;;
73104;SDS011;61296;50.526;30.792;2023-08-21T21:40:01;13.90;;;10.48;;
73104;SDS011;61296;50.526;30.792;2023-08-21T21:55:22;13.20;;;11.23;;
73104;SDS011;61296;50.526;30.792;2023-08-21T22:10:41;13.45;;;10.88;;
73104;SDS011;61296;50.526;30.792;2023-08-21T22:26:00;18.85;;;11.70;;
73104;SDS011;61296;50.526;30.792;2023-08-21T22:41:19;13.68;;;11.40;;
73104;SDS011;61296;50.526;30.792;2023-08-21T22:56:39;15.63;;;11.70;;
73104;SDS011;61296;50.526;30.792;2023-08-21T23:11:58;14.70;;;12.13;;
73104;SDS011;61296;50.526;30.792;2023-08-21T23:27:17;12.25;;;10.15;;
73104;SDS011;61296;50.526;30.792;2023-08-21T23:42:36;18.42;;;12.60;;
73104;SDS011;61296;50.526;30.792;2023-08-21T23:57:55;16.75;;;12.27;;
